ITY404 LIRF-EDDF
Flight info
| Callsign | ITY404 |
|---|---|
| Flight time | 1h 36m |
| Altitude | 38000 |
| Route | SOSIV6R SOVAN DCT AMTEL DCT SUMIR DCT NAXAV DCT UNIMI L12 MOGTI Q163 OLASO/N0443F320 Q163 HAFUN/N0401F240 Q163 ETASA T163 SPESA SPESA5B |
| Aircraft | A320/M-SDE3FGHIRWY/LB1 |
Departure
| Time | 2026-04-18 09:54 |
|---|---|
| Airport | Rome–Fiumicino Leonardo da Vinci International Airport (LIRF) |
Arrival
| Time | 2026-04-18 11:30 |
|---|---|
| Airport | Frankfurt Main Airport (EDDF) |
| Time | Latitude | Longitude | Altitude | Speed | Heading |
|---|---|---|---|---|---|
| 2026-04-18 09:11 | 41.79805 | 12.26536 | 14 ft | 0 kts | 69° |
| 2026-04-18 09:48 | 41.79806 | 12.26537 | 14 ft | 1 kts | 69° |
| 2026-04-18 09:49 | 41.79817 | 12.26574 | 16 ft | 7 kts | 60° |
| 2026-04-18 09:49 | 41.79878 | 12.26565 | 14 ft | 12 kts | 338° |
| 2026-04-18 09:49 | 41.79976 | 12.26516 | 14 ft | 18 kts | 339° |
| 2026-04-18 09:49 | 41.80096 | 12.26457 | 15 ft | 16 kts | 339° |
| 2026-04-18 09:50 | 41.80140 | 12.26414 | 14 ft | 7 kts | 278° |
| 2026-04-18 09:50 | 41.80121 | 12.26350 | 15 ft | 10 kts | 248° |
| 2026-04-18 09:50 | 41.80136 | 12.26231 | 15 ft | 15 kts | 295° |
| 2026-04-18 09:50 | 41.80179 | 12.26108 | 15 ft | 14 kts | 295° |
| 2026-04-18 09:51 | 41.80242 | 12.26052 | 14 ft | 12 kts | 19° |
| 2026-04-18 09:51 | 41.80322 | 12.26101 | 14 ft | 14 kts | 25° |
| 2026-04-18 09:51 | 41.80411 | 12.26157 | 16 ft | 15 kts | 24° |
| 2026-04-18 09:51 | 41.80512 | 12.26196 | 16 ft | 15 kts | 37° |
| 2026-04-18 09:52 | 41.80556 | 12.26338 | 16 ft | 18 kts | 69° |
| 2026-04-18 09:52 | 41.80600 | 12.26504 | 16 ft | 20 kts | 72° |
| 2026-04-18 09:52 | 41.80652 | 12.26687 | 16 ft | 22 kts | 69° |
| 2026-04-18 09:52 | 41.80708 | 12.26891 | 14 ft | 24 kts | 70° |
| 2026-04-18 09:53 | 41.80770 | 12.27045 | 13 ft | 16 kts | 21° |
| 2026-04-18 09:53 | 41.80884 | 12.27004 | 13 ft | 18 kts | 341° |
| 2026-04-18 09:53 | 41.80958 | 12.26935 | 13 ft | 11 kts | 271° |
| 2026-04-18 09:53 | 41.80887 | 12.26669 | 15 ft | 66 kts | 250° |
| 2026-04-18 09:54 | 41.80646 | 12.25798 | 19 ft | 131 kts | 250° |
| 2026-04-18 09:54 | 41.80276 | 12.24441 | 203 ft | 165 kts | 250° |
| 2026-04-18 09:54 | 41.79892 | 12.22988 | 869 ft | 168 kts | 251° |
| 2026-04-18 09:54 | 41.79474 | 12.21502 | 1610 ft | 173 kts | 250° |
| 2026-04-18 09:55 | 41.79177 | 12.19889 | 2056 ft | 190 kts | 274° |
| 2026-04-18 09:55 | 41.79637 | 12.18176 | 2427 ft | 205 kts | 309° |
| 2026-04-18 09:55 | 41.80573 | 12.16700 | 3099 ft | 210 kts | 310° |
| 2026-04-18 09:55 | 41.81496 | 12.15179 | 3821 ft | 211 kts | 309° |
| 2026-04-18 09:56 | 41.82414 | 12.13626 | 4560 ft | 213 kts | 308° |
| 2026-04-18 09:56 | 41.83336 | 12.12053 | 5266 ft | 216 kts | 309° |
| 2026-04-18 09:56 | 41.84143 | 12.10346 | 6135 ft | 220 kts | 294° |
| 2026-04-18 09:56 | 41.84512 | 12.08279 | 6571 ft | 241 kts | 277° |
| 2026-04-18 09:57 | 41.84702 | 12.05926 | 6955 ft | 266 kts | 277° |
| 2026-04-18 09:57 | 41.84912 | 12.03382 | 7557 ft | 281 kts | 278° |
| 2026-04-18 09:57 | 41.85161 | 12.00764 | 8408 ft | 285 kts | 284° |
| 2026-04-18 09:57 | 41.85931 | 11.98334 | 9281 ft | 284 kts | 308° |
| 2026-04-18 09:58 | 41.87345 | 11.96531 | 10201 ft | 281 kts | 332° |
| 2026-04-18 09:58 | 41.89165 | 11.95637 | 11009 ft | 282 kts | 353° |
| 2026-04-18 09:58 | 41.91194 | 11.95405 | 11350 ft | 304 kts | 358° |
| 2026-04-18 09:58 | 41.93350 | 11.95261 | 11940 ft | 315 kts | 358° |
| 2026-04-18 09:59 | 41.95564 | 11.95138 | 12706 ft | 320 kts | 358° |
| 2026-04-18 09:59 | 41.96317 | 11.95096 | 12971 ft | 322 kts | 358° |
| 2026-04-18 09:59 | 41.99652 | 11.94901 | 14094 ft | 329 kts | 358° |
| 2026-04-18 10:00 | 42.04255 | 11.94608 | 15471 ft | 337 kts | 357° |
| 2026-04-18 10:00 | 42.06611 | 11.94448 | 16169 ft | 341 kts | 357° |
| 2026-04-18 10:00 | 42.08990 | 11.94284 | 16850 ft | 344 kts | 357° |
| 2026-04-18 10:00 | 42.11394 | 11.94120 | 17535 ft | 348 kts | 357° |
| 2026-04-18 10:01 | 42.13823 | 11.93952 | 18216 ft | 351 kts | 357° |
| 2026-04-18 10:01 | 42.16277 | 11.93782 | 18825 ft | 355 kts | 357° |
| 2026-04-18 10:01 | 42.18754 | 11.93612 | 19368 ft | 358 kts | 357° |
| 2026-04-18 10:01 | 42.21248 | 11.93440 | 19994 ft | 360 kts | 357° |
| 2026-04-18 10:02 | 42.23762 | 11.93270 | 20610 ft | 363 kts | 357° |
| 2026-04-18 10:02 | 42.26295 | 11.93099 | 21234 ft | 366 kts | 357° |
| 2026-04-18 10:02 | 42.28852 | 11.92926 | 21847 ft | 369 kts | 357° |
| 2026-04-18 10:02 | 42.31424 | 11.92753 | 22449 ft | 372 kts | 357° |
| 2026-04-18 10:03 | 42.34020 | 11.92580 | 23063 ft | 375 kts | 357° |
| 2026-04-18 10:03 | 42.36638 | 11.92399 | 23641 ft | 378 kts | 356° |
| 2026-04-18 10:03 | 42.39273 | 11.92215 | 24136 ft | 381 kts | 357° |
| 2026-04-18 10:03 | 42.41932 | 11.92032 | 24628 ft | 383 kts | 357° |
| 2026-04-18 10:04 | 42.44606 | 11.91852 | 25102 ft | 386 kts | 357° |
| 2026-04-18 10:04 | 42.47334 | 11.91668 | 25575 ft | 389 kts | 357° |
| 2026-04-18 10:04 | 42.50048 | 11.91482 | 26024 ft | 392 kts | 357° |
| 2026-04-18 10:04 | 42.52778 | 11.91292 | 26466 ft | 395 kts | 357° |
| 2026-04-18 10:05 | 42.55531 | 11.91097 | 26928 ft | 397 kts | 357° |
| 2026-04-18 10:05 | 42.58298 | 11.90903 | 27346 ft | 399 kts | 357° |
| 2026-04-18 10:05 | 42.61083 | 11.90712 | 27775 ft | 402 kts | 357° |
| 2026-04-18 10:05 | 42.63885 | 11.90521 | 28193 ft | 404 kts | 357° |
| 2026-04-18 10:06 | 42.66700 | 11.90330 | 28607 ft | 407 kts | 357° |
| 2026-04-18 10:06 | 42.69535 | 11.90136 | 29011 ft | 409 kts | 357° |
| 2026-04-18 10:06 | 42.72385 | 11.89939 | 29418 ft | 411 kts | 357° |
| 2026-04-18 10:06 | 42.75251 | 11.89739 | 29824 ft | 414 kts | 357° |
| 2026-04-18 10:07 | 42.78139 | 11.89536 | 30196 ft | 416 kts | 357° |
| 2026-04-18 10:07 | 42.81031 | 11.89252 | 30530 ft | 418 kts | 352° |
| 2026-04-18 10:07 | 42.83877 | 11.88395 | 30843 ft | 421 kts | 343° |
| 2026-04-18 10:07 | 42.86592 | 11.86889 | 31161 ft | 424 kts | 334° |
| 2026-04-18 10:08 | 42.89195 | 11.84983 | 31472 ft | 425 kts | 333° |
| 2026-04-18 10:08 | 42.91807 | 11.83070 | 31787 ft | 426 kts | 333° |
| 2026-04-18 10:08 | 42.94417 | 11.81164 | 32207 ft | 425 kts | 333° |
| 2026-04-18 10:08 | 42.97023 | 11.79263 | 32638 ft | 424 kts | 333° |
| 2026-04-18 10:09 | 42.99615 | 11.77368 | 33062 ft | 422 kts | 333° |
| 2026-04-18 10:09 | 43.02200 | 11.75473 | 33489 ft | 421 kts | 333° |
| 2026-04-18 10:09 | 43.04773 | 11.73583 | 33922 ft | 419 kts | 333° |
| 2026-04-18 10:09 | 43.07340 | 11.71695 | 34323 ft | 418 kts | 333° |
| 2026-04-18 10:10 | 43.09899 | 11.69813 | 34674 ft | 417 kts | 333° |
| 2026-04-18 10:10 | 43.12483 | 11.67917 | 35025 ft | 416 kts | 333° |
| 2026-04-18 10:10 | 43.15029 | 11.66044 | 35358 ft | 415 kts | 333° |
| 2026-04-18 10:10 | 43.17565 | 11.64171 | 35679 ft | 414 kts | 333° |
| 2026-04-18 10:11 | 43.20127 | 11.62384 | 35987 ft | 412 kts | 338° |
| 2026-04-18 10:11 | 43.22846 | 11.61156 | 36282 ft | 411 kts | 348° |
| 2026-04-18 10:11 | 43.25665 | 11.60581 | 36560 ft | 410 kts | 356° |
| 2026-04-18 10:11 | 43.28514 | 11.60364 | 36832 ft | 410 kts | 356° |
| 2026-04-18 10:12 | 43.31361 | 11.60146 | 37104 ft | 410 kts | 356° |
| 2026-04-18 10:12 | 43.34208 | 11.59924 | 37368 ft | 409 kts | 356° |
| 2026-04-18 10:12 | 43.37051 | 11.59700 | 37642 ft | 409 kts | 356° |
| 2026-04-18 10:12 | 43.39888 | 11.59473 | 37910 ft | 408 kts | 356° |
| 2026-04-18 10:13 | 43.42723 | 11.59245 | 38113 ft | 409 kts | 356° |
| 2026-04-18 10:13 | 43.48382 | 11.58797 | 38154 ft | 406 kts | 356° |
| 2026-04-18 10:14 | 43.54016 | 11.58354 | 38160 ft | 405 kts | 356° |
| 2026-04-18 10:14 | 43.59646 | 11.57916 | 38159 ft | 405 kts | 356° |
| 2026-04-18 10:15 | 43.65274 | 11.57478 | 38156 ft | 405 kts | 356° |
| 2026-04-18 10:15 | 43.70899 | 11.57033 | 38152 ft | 405 kts | 356° |
| 2026-04-18 10:16 | 43.76529 | 11.56591 | 38155 ft | 405 kts | 356° |
| 2026-04-18 10:16 | 43.82155 | 11.56146 | 38158 ft | 405 kts | 356° |
| 2026-04-18 10:17 | 43.87821 | 11.55695 | 38163 ft | 405 kts | 356° |
| 2026-04-18 10:17 | 43.93448 | 11.55246 | 38168 ft | 405 kts | 356° |
| 2026-04-18 10:18 | 43.99073 | 11.54795 | 38180 ft | 405 kts | 356° |
| 2026-04-18 10:18 | 44.04700 | 11.54343 | 38189 ft | 405 kts | 356° |
| 2026-04-18 10:19 | 44.10321 | 11.53893 | 38208 ft | 405 kts | 356° |
| 2026-04-18 10:19 | 44.15947 | 11.53443 | 38217 ft | 405 kts | 356° |
| 2026-04-18 10:20 | 44.21213 | 11.53018 | 38223 ft | 405 kts | 356° |
| 2026-04-18 10:20 | 44.26896 | 11.52568 | 38221 ft | 405 kts | 356° |
| 2026-04-18 10:21 | 44.32528 | 11.52119 | 38212 ft | 405 kts | 356° |
| 2026-04-18 10:21 | 44.38162 | 11.51662 | 38199 ft | 405 kts | 356° |
| 2026-04-18 10:22 | 44.43794 | 11.51204 | 38186 ft | 405 kts | 356° |
| 2026-04-18 10:22 | 44.49428 | 11.50742 | 38180 ft | 405 kts | 355° |
| 2026-04-18 10:23 | 44.55099 | 11.50279 | 38178 ft | 406 kts | 355° |
| 2026-04-18 10:23 | 44.60734 | 11.49820 | 38181 ft | 406 kts | 355° |
| 2026-04-18 10:24 | 44.66376 | 11.49364 | 38188 ft | 406 kts | 355° |
| 2026-04-18 10:24 | 44.72014 | 11.48906 | 38195 ft | 406 kts | 355° |
| 2026-04-18 10:25 | 44.77657 | 11.48446 | 38199 ft | 406 kts | 355° |
| 2026-04-18 10:25 | 44.83297 | 11.47981 | 38209 ft | 406 kts | 355° |
| 2026-04-18 10:26 | 44.87987 | 11.47594 | 38219 ft | 406 kts | 355° |
| 2026-04-18 10:26 | 44.93627 | 11.47123 | 38214 ft | 406 kts | 355° |
| 2026-04-18 10:27 | 44.99270 | 11.46657 | 38215 ft | 406 kts | 355° |
| 2026-04-18 10:27 | 45.04957 | 11.46186 | 38205 ft | 406 kts | 355° |
| 2026-04-18 10:28 | 45.10604 | 11.45728 | 38196 ft | 406 kts | 355° |
| 2026-04-18 10:28 | 45.16252 | 11.45270 | 38196 ft | 406 kts | 355° |
| 2026-04-18 10:29 | 45.21895 | 11.44792 | 38186 ft | 407 kts | 355° |
| 2026-04-18 10:29 | 45.27548 | 11.44314 | 38182 ft | 407 kts | 355° |
| 2026-04-18 10:30 | 45.33199 | 11.43839 | 38179 ft | 407 kts | 355° |
| 2026-04-18 10:30 | 45.38882 | 11.43366 | 38171 ft | 407 kts | 355° |
| 2026-04-18 10:31 | 45.44537 | 11.42896 | 38168 ft | 407 kts | 355° |
| 2026-04-18 10:31 | 45.50183 | 11.42423 | 38161 ft | 407 kts | 355° |
| 2026-04-18 10:32 | 45.55839 | 11.41953 | 38163 ft | 407 kts | 355° |
| 2026-04-18 10:32 | 45.61496 | 11.41471 | 38163 ft | 407 kts | 355° |
| 2026-04-18 10:33 | 45.67155 | 11.40993 | 38167 ft | 407 kts | 355° |
| 2026-04-18 10:33 | 45.72815 | 11.40514 | 38181 ft | 407 kts | 355° |
| 2026-04-18 10:34 | 45.78472 | 11.40035 | 38182 ft | 407 kts | 355° |
| 2026-04-18 10:34 | 45.84166 | 11.39556 | 38192 ft | 407 kts | 355° |
| 2026-04-18 10:35 | 45.89830 | 11.39065 | 38201 ft | 408 kts | 355° |
| 2026-04-18 10:35 | 45.95491 | 11.38578 | 38212 ft | 408 kts | 354° |
| 2026-04-18 10:36 | 46.01151 | 11.38092 | 38221 ft | 408 kts | 355° |
| 2026-04-18 10:36 | 46.06818 | 11.37605 | 38237 ft | 408 kts | 354° |
| 2026-04-18 10:37 | 46.12480 | 11.37123 | 38249 ft | 408 kts | 354° |
| 2026-04-18 10:37 | 46.18138 | 11.36635 | 38259 ft | 408 kts | 354° |
| 2026-04-18 10:38 | 46.23799 | 11.36144 | 38264 ft | 407 kts | 354° |
| 2026-04-18 10:38 | 46.29440 | 11.35493 | 38266 ft | 406 kts | 351° |
| 2026-04-18 10:39 | 46.35039 | 11.34432 | 38170 ft | 405 kts | 350° |
| 2026-04-18 10:39 | 46.40621 | 11.33288 | 38167 ft | 405 kts | 350° |
| 2026-04-18 10:40 | 46.44362 | 11.32561 | 38165 ft | 405 kts | 348° |
| 2026-04-18 10:40 | 46.46839 | 11.31767 | 38166 ft | 403 kts | 341° |
| 2026-04-18 10:41 | 46.51990 | 11.28644 | 38167 ft | 402 kts | 334° |
| 2026-04-18 10:41 | 46.57130 | 11.25311 | 38165 ft | 402 kts | 335° |
| 2026-04-18 10:42 | 46.62240 | 11.22003 | 38175 ft | 402 kts | 335° |
| 2026-04-18 10:42 | 46.67355 | 11.18698 | 38190 ft | 403 kts | 335° |
| 2026-04-18 10:43 | 46.72480 | 11.15387 | 38200 ft | 403 kts | 335° |
| 2026-04-18 10:43 | 46.77597 | 11.12055 | 38217 ft | 402 kts | 334° |
| 2026-04-18 10:44 | 46.82706 | 11.08719 | 38216 ft | 402 kts | 334° |
| 2026-04-18 10:44 | 46.87820 | 11.05372 | 38223 ft | 403 kts | 334° |
| 2026-04-18 10:45 | 46.92959 | 11.01933 | 38221 ft | 403 kts | 334° |
| 2026-04-18 10:45 | 46.98062 | 10.98521 | 38215 ft | 403 kts | 334° |
| 2026-04-18 10:46 | 47.03184 | 10.95185 | 38210 ft | 403 kts | 335° |
| 2026-04-18 10:46 | 47.08313 | 10.91855 | 38209 ft | 403 kts | 334° |
| 2026-04-18 10:47 | 47.13436 | 10.88498 | 38213 ft | 404 kts | 334° |
| 2026-04-18 10:47 | 47.18566 | 10.85123 | 38219 ft | 404 kts | 334° |
| 2026-04-18 10:48 | 47.22437 | 10.82573 | 38220 ft | 403 kts | 334° |
| 2026-04-18 10:48 | 47.27561 | 10.79190 | 38219 ft | 403 kts | 334° |
| 2026-04-18 10:49 | 47.32666 | 10.75811 | 38213 ft | 402 kts | 334° |
| 2026-04-18 10:49 | 47.37771 | 10.72425 | 38202 ft | 402 kts | 334° |
| 2026-04-18 10:50 | 47.42957 | 10.69169 | 38205 ft | 403 kts | 336° |
| 2026-04-18 10:50 | 47.48186 | 10.66186 | 38204 ft | 403 kts | 337° |
| 2026-04-18 10:51 | 47.53423 | 10.63209 | 38212 ft | 403 kts | 336° |
| 2026-04-18 10:51 | 47.58644 | 10.60170 | 38205 ft | 403 kts | 336° |
| 2026-04-18 10:52 | 47.63857 | 10.57106 | 38203 ft | 403 kts | 336° |
| 2026-04-18 10:52 | 47.69103 | 10.54021 | 38203 ft | 403 kts | 336° |
| 2026-04-18 10:53 | 47.73441 | 10.51466 | 38198 ft | 403 kts | 336° |
| 2026-04-18 10:53 | 47.77004 | 10.49360 | 38199 ft | 403 kts | 336° |
| 2026-04-18 10:54 | 47.82215 | 10.46277 | 38196 ft | 403 kts | 336° |
| 2026-04-18 10:54 | 47.87444 | 10.43173 | 38198 ft | 403 kts | 336° |
| 2026-04-18 10:55 | 47.92642 | 10.40086 | 38200 ft | 403 kts | 336° |
| 2026-04-18 10:55 | 47.97882 | 10.36965 | 38200 ft | 403 kts | 336° |
| 2026-04-18 10:56 | 48.03083 | 10.33849 | 38203 ft | 403 kts | 336° |
| 2026-04-18 10:56 | 48.08291 | 10.30736 | 38201 ft | 403 kts | 336° |
| 2026-04-18 10:57 | 48.13491 | 10.27618 | 38200 ft | 402 kts | 336° |
| 2026-04-18 10:57 | 48.18701 | 10.24479 | 38196 ft | 402 kts | 335° |
| 2026-04-18 10:58 | 48.23396 | 10.20122 | 38194 ft | 398 kts | 320° |
| 2026-04-18 10:58 | 48.27731 | 10.14853 | 38193 ft | 399 kts | 320° |
| 2026-04-18 10:59 | 48.32050 | 10.09624 | 38197 ft | 399 kts | 320° |
| 2026-04-18 10:59 | 48.36372 | 10.04375 | 38196 ft | 399 kts | 320° |
| 2026-04-18 11:00 | 48.40740 | 9.99045 | 37833 ft | 412 kts | 320° |
| 2026-04-18 11:00 | 48.42964 | 9.96329 | 37555 ft | 413 kts | 320° |
| 2026-04-18 11:00 | 48.45189 | 9.93610 | 37281 ft | 411 kts | 320° |
| 2026-04-18 11:00 | 48.47408 | 9.90893 | 37015 ft | 409 kts | 320° |
| 2026-04-18 11:01 | 48.49609 | 9.88195 | 36750 ft | 407 kts | 320° |
| 2026-04-18 11:01 | 48.51801 | 9.85509 | 36484 ft | 405 kts | 320° |
| 2026-04-18 11:01 | 48.54010 | 9.82798 | 36219 ft | 403 kts | 320° |
| 2026-04-18 11:02 | 48.58343 | 9.77469 | 35704 ft | 398 kts | 320° |
| 2026-04-18 11:02 | 48.60468 | 9.74845 | 35448 ft | 396 kts | 319° |
| 2026-04-18 11:02 | 48.62572 | 9.72175 | 35190 ft | 394 kts | 318° |
| 2026-04-18 11:02 | 48.64637 | 9.69470 | 34959 ft | 392 kts | 318° |
| 2026-04-18 11:03 | 48.66680 | 9.66750 | 34715 ft | 390 kts | 317° |
| 2026-04-18 11:03 | 48.68711 | 9.64030 | 34464 ft | 389 kts | 317° |
| 2026-04-18 11:03 | 48.70757 | 9.61296 | 34226 ft | 387 kts | 317° |
| 2026-04-18 11:03 | 48.72773 | 9.58616 | 33949 ft | 383 kts | 318° |
| 2026-04-18 11:04 | 48.74769 | 9.55971 | 33485 ft | 379 kts | 318° |
| 2026-04-18 11:04 | 48.76742 | 9.53359 | 33003 ft | 375 kts | 318° |
| 2026-04-18 11:04 | 48.78703 | 9.50764 | 32525 ft | 372 kts | 318° |
| 2026-04-18 11:04 | 48.80647 | 9.48195 | 32049 ft | 369 kts | 318° |
| 2026-04-18 11:05 | 48.82575 | 9.45645 | 31591 ft | 367 kts | 318° |
| 2026-04-18 11:05 | 48.84488 | 9.43108 | 31136 ft | 364 kts | 318° |
| 2026-04-18 11:05 | 48.86390 | 9.40576 | 30693 ft | 362 kts | 318° |
| 2026-04-18 11:05 | 48.88275 | 9.38064 | 30247 ft | 360 kts | 318° |
| 2026-04-18 11:06 | 48.90187 | 9.35526 | 29763 ft | 357 kts | 320° |
| 2026-04-18 11:06 | 48.92173 | 9.33400 | 29352 ft | 354 kts | 329° |
| 2026-04-18 11:06 | 48.94359 | 9.31703 | 28926 ft | 351 kts | 332° |
| 2026-04-18 11:06 | 48.96533 | 9.30060 | 28523 ft | 347 kts | 332° |
| 2026-04-18 11:07 | 48.98721 | 9.28404 | 28119 ft | 344 kts | 332° |
| 2026-04-18 11:07 | 49.00842 | 9.26796 | 27713 ft | 340 kts | 332° |
| 2026-04-18 11:07 | 49.02939 | 9.25198 | 27307 ft | 337 kts | 332° |
| 2026-04-18 11:07 | 49.05029 | 9.23600 | 26898 ft | 334 kts | 332° |
| 2026-04-18 11:08 | 49.07114 | 9.22003 | 26469 ft | 332 kts | 332° |
| 2026-04-18 11:08 | 49.09154 | 9.20442 | 26053 ft | 330 kts | 332° |
| 2026-04-18 11:08 | 49.11203 | 9.18878 | 25615 ft | 329 kts | 332° |
| 2026-04-18 11:08 | 49.13247 | 9.17315 | 25192 ft | 328 kts | 332° |
| 2026-04-18 11:09 | 49.15282 | 9.15758 | 24737 ft | 327 kts | 332° |
| 2026-04-18 11:09 | 49.17373 | 9.14265 | 24281 ft | 328 kts | 338° |
| 2026-04-18 11:09 | 49.19617 | 9.13378 | 23820 ft | 331 kts | 350° |
| 2026-04-18 11:09 | 49.21897 | 9.13232 | 23318 ft | 334 kts | 2° |
| 2026-04-18 11:10 | 49.24228 | 9.13566 | 22855 ft | 333 kts | 3° |
| 2026-04-18 11:10 | 49.26549 | 9.13901 | 22407 ft | 332 kts | 3° |
| 2026-04-18 11:10 | 49.28829 | 9.14228 | 21965 ft | 331 kts | 2° |
| 2026-04-18 11:10 | 49.31169 | 9.14561 | 21540 ft | 330 kts | 3° |
| 2026-04-18 11:11 | 49.33414 | 9.14882 | 21124 ft | 329 kts | 3° |
| 2026-04-18 11:11 | 49.35687 | 9.15208 | 20708 ft | 328 kts | 3° |
| 2026-04-18 11:11 | 49.37967 | 9.15535 | 20288 ft | 328 kts | 3° |
| 2026-04-18 11:11 | 49.40228 | 9.15859 | 19877 ft | 327 kts | 3° |
| 2026-04-18 11:12 | 49.42492 | 9.16182 | 19462 ft | 327 kts | 3° |
| 2026-04-18 11:12 | 49.44753 | 9.16503 | 19051 ft | 326 kts | 3° |
| 2026-04-18 11:12 | 49.47044 | 9.16828 | 18635 ft | 326 kts | 3° |
| 2026-04-18 11:12 | 49.49309 | 9.17150 | 18191 ft | 327 kts | 3° |
| 2026-04-18 11:13 | 49.51567 | 9.17474 | 17774 ft | 325 kts | 3° |
| 2026-04-18 11:13 | 49.53820 | 9.17796 | 17375 ft | 323 kts | 3° |
| 2026-04-18 11:13 | 49.56041 | 9.18114 | 16977 ft | 321 kts | 3° |
| 2026-04-18 11:13 | 49.58264 | 9.18435 | 16589 ft | 320 kts | 3° |
| 2026-04-18 11:14 | 49.60479 | 9.18757 | 16198 ft | 319 kts | 3° |
| 2026-04-18 11:14 | 49.62681 | 9.19078 | 15818 ft | 318 kts | 4° |
| 2026-04-18 11:14 | 49.64838 | 9.19809 | 15432 ft | 319 kts | 18° |
| 2026-04-18 11:14 | 49.66822 | 9.21354 | 15053 ft | 322 kts | 32° |
| 2026-04-18 11:15 | 49.68515 | 9.23632 | 14657 ft | 324 kts | 45° |
| 2026-04-18 11:15 | 49.70062 | 9.26151 | 14255 ft | 324 kts | 44° |
| 2026-04-18 11:15 | 49.71671 | 9.28581 | 13851 ft | 322 kts | 36° |
| 2026-04-18 11:15 | 49.73563 | 9.30386 | 13445 ft | 318 kts | 22° |
| 2026-04-18 11:16 | 49.75700 | 9.31456 | 13027 ft | 314 kts | 10° |
| 2026-04-18 11:16 | 49.77775 | 9.32132 | 12642 ft | 312 kts | 10° |
| 2026-04-18 11:16 | 49.79926 | 9.32826 | 12236 ft | 310 kts | 10° |
| 2026-04-18 11:16 | 49.82037 | 9.33474 | 11822 ft | 309 kts | 6° |
| 2026-04-18 11:17 | 49.84150 | 9.33278 | 11411 ft | 304 kts | 342° |
| 2026-04-18 11:17 | 49.85985 | 9.31755 | 11051 ft | 298 kts | 317° |
| 2026-04-18 11:17 | 49.87214 | 9.29269 | 10977 ft | 288 kts | 295° |
| 2026-04-18 11:17 | 49.87862 | 9.26348 | 10916 ft | 286 kts | 287° |
| 2026-04-18 11:18 | 49.88434 | 9.23392 | 10817 ft | 286 kts | 286° |
| 2026-04-18 11:18 | 49.88998 | 9.20434 | 10713 ft | 286 kts | 286° |
| 2026-04-18 11:18 | 49.89559 | 9.17487 | 10619 ft | 285 kts | 287° |
| 2026-04-18 11:18 | 49.90118 | 9.14538 | 10520 ft | 285 kts | 286° |
| 2026-04-18 11:19 | 49.90494 | 9.12549 | 10451 ft | 285 kts | 286° |
| 2026-04-18 11:19 | 49.91050 | 9.09601 | 10349 ft | 284 kts | 286° |
| 2026-04-18 11:19 | 49.91606 | 9.06659 | 10248 ft | 284 kts | 286° |
| 2026-04-18 11:19 | 49.91976 | 9.04666 | 10183 ft | 284 kts | 285° |
| 2026-04-18 11:20 | 49.92529 | 9.01720 | 10074 ft | 284 kts | 286° |
| 2026-04-18 11:20 | 49.93084 | 8.98792 | 9977 ft | 283 kts | 286° |
| 2026-04-18 11:20 | 49.93638 | 8.95857 | 9882 ft | 283 kts | 286° |
| 2026-04-18 11:20 | 49.94194 | 8.92930 | 9778 ft | 283 kts | 287° |
| 2026-04-18 11:21 | 49.95106 | 8.90255 | 9572 ft | 281 kts | 310° |
| 2026-04-18 11:21 | 49.96637 | 8.88394 | 9151 ft | 281 kts | 334° |
| 2026-04-18 11:21 | 49.98551 | 8.87654 | 8710 ft | 282 kts | 358° |
| 2026-04-18 11:21 | 50.00444 | 8.88127 | 8140 ft | 280 kts | 21° |
| 2026-04-18 11:22 | 50.02083 | 8.89793 | 7458 ft | 279 kts | 47° |
| 2026-04-18 11:22 | 50.03117 | 8.92300 | 6793 ft | 276 kts | 70° |
| 2026-04-18 11:22 | 50.03748 | 8.95063 | 6463 ft | 262 kts | 72° |
| 2026-04-18 11:22 | 50.04343 | 8.97647 | 6215 ft | 248 kts | 71° |
| 2026-04-18 11:23 | 50.05060 | 9.00042 | 5772 ft | 244 kts | 51° |
| 2026-04-18 11:23 | 50.06375 | 9.01583 | 5398 ft | 233 kts | 17° |
| 2026-04-18 11:23 | 50.08027 | 9.01721 | 5152 ft | 235 kts | 342° |
| 2026-04-18 11:23 | 50.09487 | 9.00864 | 5030 ft | 236 kts | 334° |
| 2026-04-18 11:24 | 50.11001 | 8.99459 | 5018 ft | 236 kts | 318° |
| 2026-04-18 11:24 | 50.12127 | 8.97865 | 5017 ft | 236 kts | 313° |
| 2026-04-18 11:24 | 50.13101 | 8.95800 | 5013 ft | 232 kts | 294° |
| 2026-04-18 11:24 | 50.13546 | 8.93431 | 5015 ft | 232 kts | 274° |
| 2026-04-18 11:25 | 50.13447 | 8.90941 | 5017 ft | 231 kts | 254° |
| 2026-04-18 11:25 | 50.12916 | 8.88555 | 5018 ft | 231 kts | 249° |
| 2026-04-18 11:25 | 50.12736 | 8.87794 | 5010 ft | 230 kts | 249° |
| 2026-04-18 11:26 | 50.11280 | 8.81613 | 4347 ft | 227 kts | 249° |
| 2026-04-18 11:26 | 50.10729 | 8.79273 | 4020 ft | 230 kts | 250° |
| 2026-04-18 11:26 | 50.10185 | 8.76970 | 3697 ft | 221 kts | 249° |
| 2026-04-18 11:26 | 50.09676 | 8.74816 | 3393 ft | 203 kts | 249° |
| 2026-04-18 11:27 | 50.09204 | 8.72822 | 3138 ft | 190 kts | 249° |
| 2026-04-18 11:27 | 50.08761 | 8.70949 | 2851 ft | 178 kts | 249° |
| 2026-04-18 11:27 | 50.08345 | 8.69192 | 2598 ft | 167 kts | 249° |
| 2026-04-18 11:27 | 50.07962 | 8.67575 | 2371 ft | 156 kts | 250° |
| 2026-04-18 11:28 | 50.07602 | 8.66056 | 2174 ft | 144 kts | 250° |
| 2026-04-18 11:28 | 50.07288 | 8.64743 | 1981 ft | 138 kts | 249° |
| 2026-04-18 11:28 | 50.06953 | 8.63334 | 1780 ft | 136 kts | 250° |
| 2026-04-18 11:28 | 50.06625 | 8.61957 | 1583 ft | 135 kts | 250° |
| 2026-04-18 11:29 | 50.06296 | 8.60588 | 1377 ft | 135 kts | 250° |
| 2026-04-18 11:29 | 50.05971 | 8.59214 | 1172 ft | 135 kts | 250° |
| 2026-04-18 11:29 | 50.05646 | 8.57842 | 987 ft | 136 kts | 251° |
| 2026-04-18 11:29 | 50.05323 | 8.56476 | 811 ft | 136 kts | 251° |
| 2026-04-18 11:30 | 50.04988 | 8.55075 | 636 ft | 136 kts | 250° |
| 2026-04-18 11:30 | 50.04658 | 8.53684 | 457 ft | 137 kts | 251° |
| 2026-04-18 11:30 | 50.04332 | 8.52324 | 342 ft | 127 kts | 251° |
| 2026-04-18 11:30 | 50.04107 | 8.51390 | 329 ft | 49 kts | 249° |
| 2026-04-18 11:31 | 50.04005 | 8.51058 | 326 ft | 29 kts | 229° |
| 2026-04-18 11:31 | 50.03873 | 8.50877 | 324 ft | 20 kts | 219° |
| 2026-04-18 11:31 | 50.03786 | 8.50862 | 324 ft | 12 kts | 137° |
| 2026-04-18 11:31 | 50.03791 | 8.50968 | 326 ft | 9 kts | 68° |
| 2026-04-18 11:32 | 50.03812 | 8.51050 | 326 ft | 7 kts | 69° |
| 2026-04-18 11:32 | 50.03829 | 8.51123 | 328 ft | 8 kts | 70° |
| 2026-04-18 11:32 | 50.03849 | 8.51211 | 330 ft | 10 kts | 70° |
| 2026-04-18 11:32 | 50.03882 | 8.51347 | 329 ft | 17 kts | 69° |
| 2026-04-18 11:33 | 50.03928 | 8.51538 | 331 ft | 20 kts | 68° |
| 2026-04-18 11:33 | 50.03978 | 8.51748 | 335 ft | 22 kts | 70° |
| 2026-04-18 11:33 | 50.04032 | 8.51974 | 335 ft | 23 kts | 70° |
| 2026-04-18 11:33 | 50.04089 | 8.52216 | 345 ft | 25 kts | 68° |
| 2026-04-18 11:34 | 50.04151 | 8.52471 | 344 ft | 26 kts | 70° |
| 2026-04-18 11:34 | 50.04215 | 8.52741 | 353 ft | 27 kts | 69° |
| 2026-04-18 11:34 | 50.04281 | 8.53015 | 350 ft | 26 kts | 70° |
| 2026-04-18 11:34 | 50.04345 | 8.53280 | 360 ft | 26 kts | 69° |
| 2026-04-18 11:35 | 50.04397 | 8.53535 | 358 ft | 25 kts | 85° |
| 2026-04-18 11:35 | 50.04414 | 8.53818 | 361 ft | 27 kts | 84° |
| 2026-04-18 11:35 | 50.04433 | 8.54103 | 358 ft | 25 kts | 84° |
| 2026-04-18 11:35 | 50.04449 | 8.54336 | 358 ft | 17 kts | 84° |
| 2026-04-18 11:36 | 50.04444 | 8.54534 | 361 ft | 19 kts | 107° |
| 2026-04-18 11:36 | 50.04368 | 8.54717 | 358 ft | 21 kts | 137° |
| 2026-04-18 11:36 | 50.04228 | 8.54820 | 359 ft | 23 kts | 160° |
| 2026-04-18 11:36 | 50.04086 | 8.54900 | 359 ft | 13 kts | 159° |
| 2026-04-18 11:37 | 50.04013 | 8.54970 | 358 ft | 13 kts | 107° |
| 2026-04-18 11:37 | 50.04042 | 8.55115 | 360 ft | 15 kts | 69° |
| 2026-04-18 11:37 | 50.04081 | 8.55280 | 357 ft | 17 kts | 70° |
| 2026-04-18 11:37 | 50.04126 | 8.55467 | 360 ft | 19 kts | 70° |
| 2026-04-18 11:38 | 50.04174 | 8.55675 | 360 ft | 21 kts | 70° |
| 2026-04-18 11:38 | 50.04229 | 8.55895 | 363 ft | 22 kts | 69° |
| 2026-04-18 11:38 | 50.04285 | 8.56128 | 363 ft | 24 kts | 70° |
| 2026-04-18 11:38 | 50.04338 | 8.56352 | 359 ft | 16 kts | 69° |
| 2026-04-18 11:39 | 50.04370 | 8.56488 | 364 ft | 14 kts | 70° |
| 2026-04-18 11:39 | 50.04397 | 8.56602 | 357 ft | 8 kts | 70° |
| 2026-04-18 11:39 | 50.04417 | 8.56688 | 359 ft | 8 kts | 70° |
| 2026-04-18 11:39 | 50.04442 | 8.56785 | 357 ft | 11 kts | 68° |
| 2026-04-18 11:40 | 50.04493 | 8.56871 | 359 ft | 13 kts | 13° |
| 2026-04-18 11:40 | 50.04586 | 8.56904 | 357 ft | 15 kts | 13° |
| 2026-04-18 11:40 | 50.04748 | 8.57002 | 361 ft | 15 kts | 26° |
| 2026-04-18 11:41 | 50.04778 | 8.57018 | 357 ft | 1 kts | 350° |
| 2026-04-18 11:41 | 50.04785 | 8.56997 | 363 ft | 3 kts | 284° |
| 2026-04-18 11:41 | 50.04791 | 8.56951 | 360 ft | 6 kts | 290° |
| 2026-04-18 11:41 | 50.04801 | 8.56917 | 358 ft | 2 kts | 295° |
| 2026-04-18 11:42 | 50.04802 | 8.56914 | 362 ft | 0 kts | 295° |